Time;durP1;ratioP1;P1;durP2;ratioP2;P2;SDS_P1;SDS_P2;PMS_P1;PMS_P2;Temp;Humidity;BMP_temperature;BMP_pressure;BME280_temperature;BME280_humidity;BME280_pressure;Samples;Min_cycle;Max_cycle;Signal;HPM_P1;HPM_P2
2023/08/19 00:01:10;;;;;;;29.35;26.63;;;;;;;21.89;100.00;100938.91;4995671;28;20041;-47
2023/08/19 00:03:36;;;;;;;29.75;27.02;;;;;;;22.32;100.00;101017.72;4992711;28;20145;-49
2023/08/19 00:06:06;;;;;;;27.90;25.30;;;;;;;22.29;100.00;101009.03;4991977;28;20038;-48
2023/08/19 00:08:32;;;;;;;29.08;26.38;;;;;;;22.31;100.00;101007.09;4995786;28;20108;-47
2023/08/19 00:10:57;;;;;;;31.30;27.30;;;;;;;22.31;100.00;101007.09;5002546;28;20034;-46
2023/08/19 00:13:23;;;;;;;29.75;26.98;;;;;;;22.30;100.00;101008.06;4992397;28;20397;-50
2023/08/19 00:15:48;;;;;;;30.73;27.60;;;;;;;21.77;100.00;100907.69;4991973;28;20039;-46
2023/08/19 00:18:13;;;;;;;30.92;27.73;;;;;;;22.03;100.00;100956.59;4974806;28;20511;-45
2023/08/19 00:20:39;;;;;;;30.60;27.80;;;;;;;22.15;100.00;100977.97;4980045;28;20504;-48
2023/08/19 00:23:04;;;;;;;33.03;29.70;;;;;;;22.30;100.00;101008.91;4992837;28;20038;-47
2023/08/19 00:25:29;;;;;;;31.33;28.27;;;;;;;21.95;100.00;100938.44;5012067;28;20436;-47
2023/08/19 00:27:55;;;;;;;30.58;27.80;;;;;;;22.30;100.00;100994.63;5010829;28;20101;-46
2023/08/19 00:30:20;;;;;;;31.42;28.48;;;;;;;22.29;100.00;100996.50;5010926;28;20076;-48
2023/08/19 00:32:47;;;;;;;31.00;27.95;;;;;;;22.30;100.00;101006.22;4994155;28;20038;-46
2023/08/19 00:35:13;;;;;;;32.83;29.33;;;;;;;21.27;100.00;100808.00;4994601;28;20076;-48
2023/08/19 00:37:38;;;;;;;32.80;29.45;;;;;;;21.88;100.00;100910.41;5011998;28;20062;-45
2023/08/19 00:40:04;;;;;;;32.15;29.13;;;;;;;21.98;100.00;100921.28;5011151;28;20068;-44
2023/08/19 00:42:30;;;;;;;30.92;27.85;;;;;;;22.29;100.00;100969.69;5011933;28;20485;-44
2023/08/19 00:44:55;;;;;;;32.30;29.17;;;;;;;22.01;100.00;100918.34;4993817;28;20062;-47
2023/08/19 00:47:21;;;;;;;31.42;28.33;;;;;;;22.13;100.00;100928.09;4994307;28;20030;-48
2023/08/19 00:49:47;;;;;;;32.92;29.60;;;;;;;22.01;100.00;100905.78;4994483;28;20394;-50
2023/08/19 00:52:13;;;;;;;31.67;28.50;;;;;;;22.47;100.00;100978.09;4992406;28;20444;-46
2023/08/19 00:54:38;;;;;;;32.75;29.55;;;;;;;22.39;100.00;100951.88;5012080;28;20116;-51
2023/08/19 00:57:04;;;;;;;30.98;27.98;;;;;;;22.52;100.00;100975.03;4978109;28;20038;-46
2023/08/19 00:59:29;;;;;;;32.08;28.73;;;;;;;22.54;100.00;100967.72;5012154;28;20046;-45
2023/08/19 01:01:54;;;;;;;32.97;29.80;;;;;;;22.56;100.00;100966.63;4984107;28;20121;-45
2023/08/19 01:04:20;;;;;;;32.75;29.52;;;;;;;22.52;100.00;100957.13;4992159;28;20038;-45
2023/08/19 01:06:51;;;;;;;32.50;29.30;;;;;;;22.34;100.00;100919.22;4992068;28;20038;-50
2023/08/19 01:09:43;;;;;;;32.28;29.13;;;;;;;22.66;100.00;100964.06;4992728;28;20030;-45
2023/08/19 01:12:24;;;;;;;31.83;28.50;;;;;;;22.08;100.00;100868.63;4987239;28;20034;-49
2023/08/19 01:15:04;;;;;;;33.58;30.17;;;;;;;22.64;100.00;100953.47;4977832;28;20476;-46
2023/08/19 01:17:30;;;;;;;32.85;29.45;;;;;;;22.27;100.00;100890.34;4978110;28;20038;-49
2023/08/19 01:19:56;;;;;;;33.55;30.08;;;;;;;22.30;100.00;100888.22;4994240;28;20034;-45
2023/08/19 01:22:30;;;;;;;31.58;28.48;;;;;;;22.70;100.00;100949.44;5008543;28;20046;-45
2023/08/19 01:24:56;;;;;;;32.38;29.05;;;;;;;22.30;100.00;100890.91;4993989;28;20054;-45
2023/08/19 01:27:22;;;;;;;32.58;29.50;;;;;;;22.60;100.00;100941.25;4995174;28;20057;-48
2023/08/19 01:29:48;;;;;;;29.73;27.02;;;;;;;22.19;100.00;100872.16;5015344;28;20120;-47
2023/08/19 01:32:14;;;;;;;32.88;29.45;;;;;;;22.63;100.00;100941.00;4982524;28;20494;-47
2023/08/19 01:34:40;;;;;;;33.60;30.13;;;;;;;22.58;100.00;100928.94;4986343;28;20037;-45
2023/08/19 01:37:08;;;;;;;33.30;30.17;;;;;;;22.65;100.00;100939.06;5015314;28;20474;-45
2023/08/19 01:39:35;;;;;;;33.78;30.27;;;;;;;22.28;100.00;100879.47;4978881;28;20039;-43
2023/08/19 01:42:00;;;;;;;35.60;31.77;;;;;;;22.24;100.00;100867.28;4977539;28;20254;-47
2023/08/19 01:44:26;;;;;;;34.35;31.00;;;;;;;22.15;100.00;100857.31;4995843;28;20033;-46
2023/08/19 01:46:51;;;;;;;34.05;30.77;;;;;;;22.12;100.00;100851.34;4981748;28;20132;-50
2023/08/19 01:49:17;;;;;;;34.25;30.65;;;;;;;22.26;100.00;100885.94;4997585;28;20045;-51
2023/08/19 01:51:42;;;;;;;35.17;31.55;;;;;;;22.43;100.00;100922.97;4979302;28;20038;-47
2023/08/19 01:54:07;;;;;;;34.80;31.38;;;;;;;22.19;100.00;100873.97;5014911;28;20038;-45
2023/08/19 01:56:33;;;;;;;36.83;33.13;;;;;;;22.13;100.00;100877.16;5014943;28;20030;-45
2023/08/19 01:58:58;;;;;;;36.10;32.55;;;;;;;22.14;100.00;100879.72;5014163;28;20037;-46
2023/08/19 02:01:24;;;;;;;37.92;34.30;;;;;;;22.52;100.00;100929.44;5013840;28;20044;-45
2023/08/19 02:03:49;;;;;;;35.92;32.30;;;;;;;22.03;100.00;100850.25;4996089;28;20046;-46
2023/08/19 02:06:14;;;;;;;36.55;32.80;;;;;;;22.40;100.00;100918.72;4995350;28;20046;-48
2023/08/19 02:08:40;;;;;;;36.47;32.80;;;;;;;22.39;100.00;100911.63;4998760;28;20042;-47
2023/08/19 02:11:05;;;;;;;38.55;34.40;;;;;;;22.46;100.00;100925.41;4988931;28;20041;-45
2023/08/19 02:13:30;;;;;;;37.58;33.95;;;;;;;22.45;100.00;100926.38;5002631;28;20360;-47
2023/08/19 02:15:56;;;;;;;37.65;33.80;;;;;;;22.46;100.00;100929.91;5013067;28;20162;-48
2023/08/19 02:18:22;;;;;;;37.53;33.83;;;;;;;22.42;100.00;100916.75;5014374;28;20517;-50
2023/08/19 02:20:47;;;;;;;36.67;33.17;;;;;;;22.43;100.00;100923.84;5014367;28;20061;-44
2023/08/19 02:23:13;;;;;;;38.10;34.08;;;;;;;22.04;100.00;100845.72;5014425;28;20058;-45
2023/08/19 02:25:38;;;;;;;38.30;34.47;;;;;;;22.46;100.00;100911.16;5010679;28;20092;-48
2023/08/19 02:28:04;;;;;;;39.10;35.20;;;;;;;22.09;100.00;100855.13;5014212;28;20070;-52
2023/08/19 02:30:31;;;;;;;37.67;33.80;;;;;;;22.08;100.00;100852.53;4985068;28;20038;-48
2023/08/19 02:32:56;;;;;;;36.25;32.47;;;;;;;22.06;100.00;100838.41;4977280;28;20117;-45
2023/08/19 02:35:22;;;;;;;36.85;33.17;;;;;;;22.36;100.00;100889.56;4994584;28;20113;-50
2023/08/19 02:37:47;;;;;;;37.00;33.30;;;;;;;22.47;100.00;100903.00;4994467;28;20038;-46
2023/08/19 02:40:13;;;;;;;37.25;33.47;;;;;;;22.02;100.00;100826.22;4985101;28;20045;-48
2023/08/19 02:42:38;;;;;;;38.22;34.58;;;;;;;22.07;100.00;100827.56;4997893;28;20065;-47
2023/08/19 02:45:06;;;;;;;36.05;32.60;;;;;;;22.39;100.00;100889.31;4996691;28;20084;-47
2023/08/19 02:47:31;;;;;;;36.38;32.60;;;;;;;22.30;100.00;100873.97;5012992;28;20453;-47
2023/08/19 02:49:57;;;;;;;37.45;33.75;;;;;;;22.03;100.00;100833.31;4986380;28;20034;-47
2023/08/19 02:52:22;;;;;;;37.45;33.60;;;;;;;22.42;100.00;100894.44;4993654;28;20034;-50
2023/08/19 02:54:47;;;;;;;36.67;32.92;;;;;;;22.38;100.00;100875.09;5013280;28;20033;-45
2023/08/19 02:57:13;;;;;;;36.88;32.90;;;;;;;22.38;100.00;100877.75;5013434;28;20128;-49
2023/08/19 02:59:38;;;;;;;37.28;33.47;;;;;;;22.36;100.00;100874.34;5014192;28;20504;-49
2023/08/19 03:02:03;;;;;;;36.80;33.08;;;;;;;22.39;100.00;100886.63;4979271;28;20041;-45
2023/08/19 03:04:28;;;;;;;36.60;32.78;;;;;;;22.31;100.00;100876.53;4976731;28;20045;-45
2023/08/19 03:06:54;;;;;;;36.50;33.00;;;;;;;22.36;100.00;100890.44;5013874;28;20030;-47
2023/08/19 03:09:19;;;;;;;38.13;34.35;;;;;;;22.40;100.00;100893.72;4994418;28;20030;-45
2023/08/19 03:11:45;;;;;;;38.58;34.70;;;;;;;22.38;100.00;100887.63;4996063;28;20038;-46
2023/08/19 03:14:10;;;;;;;38.03;34.22;;;;;;;22.32;100.00;100870.22;5012089;28;20030;-44
2023/08/19 03:16:35;;;;;;;38.10;34.15;;;;;;;22.37;100.00;100859.09;4996334;28;20048;-47
2023/08/19 03:19:01;;;;;;;36.65;33.10;;;;;;;22.38;100.00;100844.72;4995886;28;20040;-44
2023/08/19 03:21:26;;;;;;;38.13;34.40;;;;;;;22.35;100.00;100845.84;4995491;28;20417;-44
2023/08/19 03:23:51;;;;;;;37.70;33.85;;;;;;;22.33;100.00;100845.06;4994892;28;20468;-44
2023/08/19 03:26:17;;;;;;;36.33;32.65;;;;;;;21.83;100.00;100757.97;4995815;28;20038;-48
2023/08/19 03:28:42;;;;;;;37.78;32.35;;;;;;;22.33;100.00;100847.75;4993562;28;20398;-45
2023/08/19 03:31:11;;;;;;;35.33;31.90;;;;;;;22.05;100.00;100809.91;4993595;28;20379;-47
2023/08/19 03:33:39;;;;;;;36.03;32.40;;;;;;;22.02;100.00;100819.03;5002122;28;20096;-48
2023/08/19 03:36:04;;;;;;;36.10;32.20;;;;;;;22.34;100.00;100883.47;5013392;28;20033;-43
2023/08/19 03:38:30;;;;;;;35.38;31.88;;;;;;;22.34;100.00;100878.97;5013075;28;20057;-45
2023/08/19 03:40:55;;;;;;;36.33;32.60;;;;;;;22.37;100.00;100880.56;5013021;28;20389;-45
2023/08/19 03:43:21;;;;;;;35.30;31.77;;;;;;;21.88;100.00;100805.91;5005851;28;20042;-46
2023/08/19 03:45:46;;;;;;;37.92;33.88;;;;;;;22.37;100.00;100883.25;4976018;28;20046;-44
2023/08/19 03:48:12;;;;;;;36.30;32.38;;;;;;;22.31;100.00;100873.00;4993049;28;20031;-46
2023/08/19 03:50:37;;;;;;;35.20;31.60;;;;;;;22.25;100.00;100868.13;4975697;28;20042;-45
2023/08/19 03:53:03;;;;;;;33.92;30.40;;;;;;;22.34;100.00;100884.34;4975230;28;20069;-50
2023/08/19 03:55:29;;;;;;;34.55;31.15;;;;;;;22.21;100.00;100872.88;4993065;28;20485;-47
2023/08/19 03:57:55;;;;;;;34.92;31.48;;;;;;;22.23;100.00;100880.81;5002092;28;20033;-44
2023/08/19 04:00:20;;;;;;;33.80;30.67;;;;;;;22.33;100.00;100898.72;5011305;28;20099;-45
2023/08/19 04:02:45;;;;;;;34.20;30.77;;;;;;;21.86;100.00;100814.00;5012041;28;20477;-45
2023/08/19 04:05:12;;;;;;;33.42;30.08;;;;;;;22.31;100.00;100903.34;5012603;28;20037;-48
2023/08/19 04:07:37;;;;;;;34.22;31.02;;;;;;;22.27;100.00;100874.25;5012584;28;20544;-46
2023/08/19 04:10:04;;;;;;;35.47;31.83;;;;;;;22.06;100.00;100839.28;5012621;28;20038;-48
2023/08/19 04:12:29;;;;;;;32.85;29.73;;;;;;;22.32;100.00;100880.09;5011341;28;20080;-48
2023/08/19 04:14:55;;;;;;;33.78;30.38;;;;;;;21.98;100.00;100817.56;5012049;28;20026;-46
2023/08/19 04:17:20;;;;;;;31.10;28.08;;;;;;;21.92;100.00;100801.97;5012145;28;20049;-44
2023/08/19 04:19:45;;;;;;;32.47;29.45;;;;;;;22.42;100.00;100889.06;5012450;28;20054;-48
2023/08/19 04:22:15;;;;;;;32.25;28.98;;;;;;;22.42;100.00;100894.44;4994475;28;20067;-46
2023/08/19 04:24:40;;;;;;;31.85;28.75;;;;;;;22.33;100.00;100871.03;4993190;28;20041;-47
2023/08/19 04:27:06;;;;;;;32.15;28.90;;;;;;;22.36;100.00;100878.84;5012594;28;20034;-46
2023/08/19 04:29:34;;;;;;;30.95;28.02;;;;;;;22.04;100.00;100818.91;5012494;28;20037;-46
2023/08/19 04:32:03;;;;;;;29.67;26.58;;;;;;;22.46;100.00;100884.31;4965370;28;20065;-46
2023/08/19 04:34:29;;;;;;;32.97;29.48;;;;;;;22.45;100.00;100902.25;5009473;28;20512;-45
2023/08/19 04:36:55;;;;;;;30.85;27.40;;;;;;;22.41;100.00;100893.63;5012266;28;20026;-45
2023/08/19 04:39:21;;;;;;;32.70;29.58;;;;;;;22.08;100.00;100833.78;4994774;28;20042;-44
2023/08/19 04:41:46;;;;;;;29.88;26.80;;;;;;;22.40;100.00;100891.03;5012283;28;20044;-45
2023/08/19 04:44:12;;;;;;;30.73;27.80;;;;;;;22.42;100.00;100891.75;5010876;28;20033;-48
2023/08/19 04:46:37;;;;;;;30.73;27.67;;;;;;;22.37;100.00;100889.47;5012312;28;20038;-44
2023/08/19 04:49:03;;;;;;;29.38;26.50;;;;;;;22.35;100.00;100877.16;5012263;28;20034;-50
2023/08/19 04:51:28;;;;;;;30.42;27.60;;;;;;;22.19;100.00;100852.53;5012275;28;20069;-45
2023/08/19 04:53:53;;;;;;;29.58;26.67;;;;;;;21.96;100.00;100810.63;5010877;28;20044;-47
2023/08/19 04:56:19;;;;;;;28.67;25.98;;;;;;;22.44;100.00;100889.81;5012662;28;20040;-44
2023/08/19 04:58:44;;;;;;;30.95;27.67;;;;;;;22.41;100.00;100879.34;5012042;28;20120;-44
2023/08/19 05:01:10;;;;;;;28.85;25.88;;;;;;;22.07;100.00;100821.34;5011332;28;20042;-45
2023/08/19 05:03:35;;;;;;;28.83;25.95;;;;;;;22.43;100.00;100882.75;5004820;28;20459;-44
2023/08/19 05:06:00;;;;;;;27.05;24.65;;;;;;;21.96;100.00;100797.25;5003851;28;20036;-46
2023/08/19 05:08:26;;;;;;;27.83;25.10;;;;;;;22.49;100.00;100887.63;4998403;28;20038;-43
2023/08/19 05:10:52;;;;;;;28.48;25.58;;;;;;;22.07;100.00;100811.47;5016019;28;20048;-46
2023/08/19 05:13:18;;;;;;;28.73;26.00;;;;;;;22.47;100.00;100880.66;4992015;28;20122;-46
2023/08/19 05:15:43;;;;;;;27.48;24.75;;;;;;;22.50;100.00;100893.84;4999135;28;20091;-46
2023/08/19 05:18:09;;;;;;;28.15;25.58;;;;;;;22.56;100.00;100914.81;4995959;28;20042;-46
2023/08/19 05:20:34;;;;;;;27.83;25.13;;;;;;;22.60;100.00;100914.41;4995920;28;20076;-47
2023/08/19 05:22:59;;;;;;;27.17;24.58;;;;;;;22.12;100.00;100821.84;4998364;28;20057;-45
2023/08/19 05:25:24;;;;;;;27.40;24.65;;;;;;;22.38;100.00;100872.41;4998119;28;20045;-46
2023/08/19 05:27:50;;;;;;;26.92;24.30;;;;;;;22.47;100.00;100891.41;4998182;28;20041;-45
2023/08/19 05:30:15;;;;;;;28.70;25.83;;;;;;;22.11;100.00;100833.53;5015660;28;20038;-47
2023/08/19 05:32:41;;;;;;;27.00;24.52;;;;;;;22.49;100.00;100900.16;5015331;28;20121;-46
2023/08/19 05:35:06;;;;;;;26.85;24.30;;;;;;;22.46;100.00;100905.78;4995983;28;20045;-49
2023/08/19 05:37:32;;;;;;;28.02;25.35;;;;;;;22.51;100.00;100915.16;4995572;28;20038;-47
2023/08/19 05:39:57;;;;;;;25.95;23.40;;;;;;;22.52;100.00;100919.56;4995930;28;20089;-45
2023/08/19 05:42:22;;;;;;;26.85;24.23;;;;;;;22.51;100.00;100916.97;4996295;28;20030;-47
2023/08/19 05:44:48;;;;;;;27.90;25.30;;;;;;;22.57;100.00;100925.41;5014865;28;20026;-45
2023/08/19 05:47:15;;;;;;;25.45;23.00;;;;;;;22.14;100.00;100844.00;5015009;28;20038;-48
2023/08/19 05:49:40;;;;;;;26.77;24.20;;;;;;;22.41;100.00;100869.47;5014724;28;20041;-46
2023/08/19 05:52:05;;;;;;;25.35;22.88;;;;;;;22.77;100.00;100918.44;4991541;28;20038;-45
2023/08/19 05:54:31;;;;;;;25.83;23.35;;;;;;;22.87;100.00;100922.94;5015255;28;20038;-45
2023/08/19 05:56:56;;;;;;;24.45;22.02;;;;;;;22.56;100.00;100863.84;5014767;28;20038;-46
2023/08/19 05:59:21;;;;;;;23.65;21.38;;;;;;;23.05;100.00;100935.81;5014984;28;20034;-47
2023/08/19 06:01:47;;;;;;;23.08;20.98;;;;;;;23.11;100.00;100941.53;5014763;28;20473;-44
2023/08/19 06:04:13;;;;;;;22.70;20.52;;;;;;;23.21;100.00;100938.94;4995675;28;20442;-47
2023/08/19 06:06:38;;;;;;;22.45;20.17;;;;;;;23.31;100.00;100942.56;4995379;28;20528;-47
2023/08/19 06:09:04;;;;;;;21.65;19.55;;;;;;;23.00;100.00;100871.75;4995042;28;20038;-48
2023/08/19 06:11:29;;;;;;;20.40;18.45;;;;;;;23.51;100.00;100941.75;4995271;28;20045;-45
2023/08/19 06:13:55;;;;;;;20.00;18.08;;;;;;;23.50;100.00;100915.88;5010459;28;20100;-50
2023/08/19 06:16:20;;;;;;;19.20;17.33;;;;;;;23.72;100.00;100939.94;5014210;28;20052;-48
2023/08/19 06:18:45;;;;;;;19.60;17.67;;;;;;;23.83;100.00;100947.09;4996709;28;20125;-45
2023/08/19 06:21:11;;;;;;;19.23;17.25;;;;;;;23.58;100.00;100891.91;5014293;28;20185;-47
2023/08/19 06:23:37;;;;;;;18.55;16.77;;;;;;;23.99;100.00;100948.31;5013445;28;20060;-48
2023/08/19 06:26:03;;;;;;;16.92;15.23;;;;;;;24.20;100.00;100969.84;5013372;28;20038;-51
2023/08/19 06:28:28;;;;;;;16.90;15.20;;;;;;;24.25;100.00;100969.44;5014403;28;20451;-46
2023/08/19 06:30:54;;;;;;;17.30;15.55;;;;;;;24.21;100.00;100957.25;5014249;28;20038;-50
2023/08/19 06:33:19;;;;;;;16.88;15.27;;;;;;;23.93;100.00;100918.44;5013714;28;20486;-45
2023/08/19 06:35:49;;;;;;;16.70;15.10;;;;;;;24.31;100.00;100966.22;5014005;28;20119;-45
2023/08/19 06:38:19;;;;;;;17.15;15.52;;;;;;;24.31;100.00;100964.41;5014148;28;20433;-47
2023/08/19 06:41:09;;;;;;;19.15;17.13;;;;;;;23.90;100.00;100913.31;5014288;28;20351;-46
2023/08/19 06:43:36;;;;;;;16.57;15.00;;;;;;;24.23;100.00;100972.25;4983623;28;20027;-46
2023/08/19 06:46:02;;;;;;;16.63;14.98;;;;;;;24.16;100.00;100972.94;4993131;28;20038;-44
2023/08/19 06:48:27;;;;;;;16.13;14.63;;;;;;;23.95;100.00;100937.97;4976802;28;20037;-45
2023/08/19 06:50:53;;;;;;;17.52;15.73;;;;;;;24.08;100.00;100981.63;4977051;28;20121;-45
2023/08/19 06:53:20;;;;;;;17.65;15.25;;;;;;;23.66;100.00;100920.81;5004288;28;20034;-43
2023/08/19 06:56:00;;;;;;;17.33;15.63;;;;;;;23.84;100.00;100952.34;5013252;28;20068;-47
2023/08/19 06:58:28;;;;;;;16.10;14.60;;;;;;;23.70;100.00;100941.91;5013884;28;20040;-46
2023/08/19 07:00:59;;;;;;;16.20;14.68;;;;;;;24.05;100.00;100989.97;5013035;28;20029;-45
2023/08/19 07:03:27;;;;;;;17.58;15.77;;;;;;;24.05;100.00;101000.72;4995897;28;20084;-45
2023/08/19 07:05:53;;;;;;;15.35;13.88;;;;;;;24.07;100.00;100979.94;5014089;28;20046;-50
2023/08/19 07:08:19;;;;;;;16.80;14.85;;;;;;;24.12;100.00;100987.63;4996091;28;20405;-46
2023/08/19 07:10:45;;;;;;;16.52;14.50;;;;;;;23.84;100.00;100933.53;4996170;28;20038;-45
2023/08/19 07:13:11;;;;;;;15.63;14.15;;;;;;;24.04;100.00;100939.88;4982574;28;20052;-44
2023/08/19 07:15:41;;;;;;;15.85;14.35;;;;;;;24.26;100.00;100952.31;4993821;28;20521;-45
2023/08/19 07:18:07;;;;;;;13.73;12.43;;;;;;;24.57;100.00;101000.63;4976361;28;20046;-47
2023/08/19 07:20:32;;;;;;;13.85;12.38;;;;;;;24.32;100.00;100955.31;4992626;28;20089;-44
2023/08/19 07:23:00;;;;;;;13.85;12.35;;;;;;;24.63;100.00;101005.44;4978692;28;20049;-45
2023/08/19 07:25:25;;;;;;;15.95;11.77;;;;;;;24.80;100.00;101047.06;5012465;28;20109;-45
2023/08/19 07:27:51;;;;;;;13.27;11.88;;;;;;;24.71;100.00;101030.84;4995132;28;20453;-45
2023/08/19 07:30:17;;;;;;;13.70;12.38;;;;;;;24.33;100.00;100983.06;4995585;28;20072;-48
2023/08/19 07:32:42;;;;;;;14.05;12.10;;;;;;;24.61;100.00;101038.88;5012299;28;20044;-45
2023/08/19 07:35:08;;;;;;;13.50;12.23;;;;;;;24.54;100.00;101032.34;5013144;28;20034;-45
2023/08/19 07:37:34;;;;;;;14.50;13.23;;;;;;;24.09;100.00;100972.56;5012864;28;20030;-44
2023/08/19 07:39:59;;;;;;;17.80;12.35;;;;;;;24.45;100.00;101027.75;4979343;28;20491;-46
2023/08/19 07:42:27;;;;;;;14.88;11.95;;;;;;;24.21;100.00;100985.00;4964835;28;20063;-46
2023/08/19 07:44:52;;;;;;;17.17;12.13;;;;;;;24.46;100.00;101035.66;4967962;28;20055;-44
2023/08/19 07:47:17;;;;;;;13.57;12.20;;;;;;;24.38;100.00;101030.13;4951970;29;20103;-46
2023/08/19 07:49:43;;;;;;;12.75;11.60;;;;;;;24.61;100.00;101060.41;4952075;29;20032;-47
2023/08/19 07:52:08;;;;;;;17.48;11.65;;;;;;;24.70;100.00;101042.59;4954172;28;20057;-46
2023/08/19 07:54:34;;;;;;;14.50;12.40;;;;;;;24.90;100.00;101068.63;4963771;28;20050;-49
2023/08/19 07:56:59;;;;;;;13.77;11.82;;;;;;;24.73;100.00;101016.25;4951598;28;20426;-45
2023/08/19 07:59:25;;;;;;;16.85;12.10;;;;;;;25.24;100.00;101086.22;4950894;28;20479;-48
2023/08/19 08:01:51;;;;;;;14.57;12.55;;;;;;;25.30;100.00;101084.81;4934073;28;20135;-45
2023/08/19 08:04:16;;;;;;;14.80;12.40;;;;;;;25.32;100.00;101074.72;4950981;29;20110;-47
2023/08/19 08:06:42;;;;;;;15.40;12.98;;;;;;;25.16;100.00;101033.00;4951609;28;20035;-46
2023/08/19 08:09:07;;;;;;;13.73;11.95;;;;;;;25.27;100.00;101036.56;4951197;28;20462;-49
2023/08/19 08:11:33;;;;;;;15.25;12.32;;;;;;;25.76;100.00;101033.81;4951356;28;20126;-53
2023/08/19 08:13:58;;;;;;;13.73;12.20;;;;;;;26.96;100.00;101087.16;4984176;28;20100;-46
2023/08/19 08:16:23;;;;;;;14.65;12.50;;;;;;;27.83;100.00;101113.56;5011263;28;20100;-47
2023/08/19 08:18:49;;;;;;;13.25;10.85;;;;;;;28.19;100.00;101065.72;5011618;28;20084;-49
2023/08/19 08:21:14;;;;;;;14.50;10.55;;;;;;;28.56;100.00;101075.44;4994013;28;20038;-46
2023/08/19 08:23:40;;;;;;;11.75;10.20;;;;;;;29.10;100.00;101153.66;5012069;28;20049;-51
2023/08/19 08:26:06;;;;;;;11.35;8.70;;;;;;;29.50;100.00;101155.75;4993690;28;20038;-47
2023/08/19 08:28:31;;;;;;;8.50;7.63;;;;;;;29.94;100.00;101170.00;5012382;28;20056;-47
2023/08/19 08:30:57;;;;;;;11.15;8.82;;;;;;;30.37;100.00;101179.72;4994291;28;20033;-47
2023/08/19 08:33:22;;;;;;;7.28;6.57;;;;;;;30.16;100.00;101196.50;5012249;28;20555;-46
2023/08/19 08:35:48;;;;;;;11.40;7.45;;;;;;;29.65;100.00;101197.53;4976354;28;20034;-45
2023/08/19 08:38:13;;;;;;;7.80;7.05;;;;;;;29.18;100.00;101159.16;5008413;28;20038;-46
2023/08/19 08:40:39;;;;;;;6.25;5.65;;;;;;;29.75;100.00;101235.34;4994282;28;20064;-50
2023/08/19 08:43:05;;;;;;;6.55;5.70;;;;;;;29.38;100.00;101176.91;5011707;28;20045;-48
2023/08/19 08:45:32;;;;;;;5.63;5.07;;;;;;;29.16;100.00;101163.03;4994386;28;20037;-50
2023/08/19 08:47:58;;;;;;;8.77;5.53;;;;;;;29.04;100.00;101222.94;4997660;28;20046;-51
2023/08/19 08:50:24;;;;;;;5.45;4.93;;;;;;;28.76;100.00;101207.84;4999141;28;20049;-46
2023/08/19 08:52:50;;;;;;;5.00;4.60;;;;;;;28.85;100.00;101170.81;4976383;28;20034;-47
2023/08/19 08:55:15;;;;;;;5.13;4.63;;;;;;;29.74;100.00;101245.38;5011565;28;20113;-46
2023/08/19 08:57:40;;;;;;;4.72;4.25;;;;;;;30.00;100.00;101258.91;4993695;28;20092;-50
2023/08/19 09:00:07;;;;;;;3.42;3.13;;;;;;;30.28;100.00;101259.47;5012032;28;20034;-51
2023/08/19 09:02:34;;;;;;;3.90;3.10;;;;;;;30.21;100.00;101291.03;5011762;28;20080;-50
2023/08/19 09:04:59;;;;;;;3.92;3.63;;;;;;;30.03;100.00;101281.16;4994243;28;20081;-50
2023/08/19 09:07:25;;;;;;;5.72;3.35;;;;;;;29.31;100.00;101221.94;4994643;28;20034;-46
2023/08/19 09:09:52;;;;;;;6.43;4.15;;;;;;;29.22;100.00;101268.97;4994554;28;20088;-48
2023/08/19 09:12:20;;;;;;;4.60;4.20;;;;;;;29.10;100.00;101282.94;5011796;28;20266;-48
2023/08/19 09:14:47;;;;;;;4.05;3.65;;;;;;;29.21;100.00;101280.84;5011918;28;20030;-47
2023/08/19 09:17:13;;;;;;;4.82;3.20;;;;;;;29.26;100.00;101277.66;5011930;28;20077;-49
2023/08/19 09:19:38;;;;;;;4.30;3.58;;;;;;;29.35;100.00;101284.84;5012059;28;20034;-46
2023/08/19 09:22:11;;;;;;;4.95;4.07;;;;;;;29.41;100.00;101305.91;5011610;28;20053;-49
2023/08/19 09:24:36;;;;;;;4.68;3.88;;;;;;;29.28;100.00;101309.03;5011715;28;20049;-49
2023/08/19 09:27:01;;;;;;;3.92;3.58;;;;;;;29.15;100.00;101259.78;5011445;28;20041;-52
2023/08/19 09:29:27;;;;;;;3.70;3.40;;;;;;;30.21;100.00;101324.44;5011625;28;20046;-46
2023/08/19 09:31:53;;;;;;;5.55;4.22;;;;;;;30.32;100.00;101278.00;5011905;28;20033;-49
2023/08/19 09:34:19;;;;;;;3.75;3.45;;;;;;;30.30;100.00;101339.75;5011725;28;20527;-44
2023/08/19 09:36:44;;;;;;;6.07;3.63;;;;;;;29.74;100.00;101334.06;5011741;28;20029;-45
2023/08/19 09:39:09;;;;;;;3.75;3.40;;;;;;;29.10;100.00;101335.28;5011544;28;20541;-48
2023/08/19 09:41:35;;;;;;;5.10;3.88;;;;;;;28.73;100.00;101330.06;5011832;28;20036;-48
2023/08/19 09:44:00;;;;;;;3.40;3.03;;;;;;;29.33;100.00;101332.97;4994094;28;20116;-49
2023/08/19 09:46:33;;;;;;;7.38;3.97;;;;;;;29.77;100.00;101285.78;5011733;28;20129;-47
2023/08/19 09:48:59;;;;;;;4.40;3.25;;;;;;;30.64;100.00;101288.09;5013914;28;20029;-46
2023/08/19 09:51:26;;;;;;;5.35;4.20;;;;;;;31.12;100.00;101326.19;4997389;28;20092;-47
2023/08/19 09:53:51;;;;;;;5.10;3.72;;;;;;;31.38;100.00;101358.63;5015233;28;20076;-46
2023/08/19 09:56:26;;;;;;;4.38;3.97;;;;;;;30.76;100.00;101373.72;5015311;28;20066;-45
2023/08/19 09:58:56;;;;;;;5.18;3.88;;;;;;;29.41;100.00;101314.03;4997731;28;20060;-49
2023/08/19 10:01:25;;;;;;;5.30;3.92;;;;;;;28.86;100.00;101371.19;5014816;28;20030;-47
2023/08/19 10:03:51;;;;;;;9.43;3.70;;;;;;;28.22;100.00;101346.06;5015009;28;20033;-47
2023/08/19 10:06:19;;;;;;;5.78;4.05;;;;;;;27.75;100.00;101351.53;4997196;28;20044;-47
2023/08/19 10:08:47;;;;;;;5.22;4.55;;;;;;;27.13;100.00;101299.84;4997355;28;20397;-50
2023/08/19 10:11:14;;;;;;;4.63;4.13;;;;;;;27.33;100.00;101352.88;5014983;28;20079;-49
2023/08/19 10:13:41;;;;;;;5.28;4.78;;;;;;;26.89;100.00;101312.94;4980837;28;20541;-51
2023/08/19 10:16:06;;;;;;;5.25;4.53;;;;;;;27.20;100.00;101355.84;4997122;28;20030;-46
2023/08/19 10:18:35;;;;;;;5.43;4.65;;;;;;;26.90;100.00;101290.34;4996709;28;20045;-46
2023/08/19 10:21:05;;;;;;;5.65;5.10;;;;;;;27.12;100.00;101323.31;4996579;28;20409;-47
2023/08/19 10:23:31;;;;;;;6.28;4.60;;;;;;;27.34;100.00;101352.72;5014583;28;20077;-47
2023/08/19 10:25:58;;;;;;;6.43;5.47;;;;;;;27.51;100.00;101375.50;4996576;28;20113;-48
2023/08/19 10:28:27;;;;;;;6.85;5.57;;;;;;;27.17;100.00;101320.19;4980238;28;20046;-47
2023/08/19 10:31:15;;;;;;;6.35;5.63;;;;;;;27.14;100.00;101326.75;5014286;28;20478;-49
2023/08/19 10:33:42;;;;;;;5.95;5.38;;;;;;;27.77;100.00;101383.81;4996974;28;20044;-48
2023/08/19 10:36:09;;;;;;;7.78;6.93;;;;;;;27.93;100.00;101351.59;5014215;28;20038;-46
2023/08/19 10:39:03;;;;;;;8.45;6.28;;;;;;;28.97;100.00;101384.50;5014210;28;20087;-44
2023/08/19 10:41:35;;;;;;;7.32;5.53;;;;;;;29.37;100.00;101394.84;5014458;28;20026;-48
2023/08/19 10:44:01;;;;;;;7.28;6.57;;;;;;;29.42;100.00;101378.13;5014027;28;20061;-48
2023/08/19 10:46:34;;;;;;;8.13;5.97;;;;;;;29.43;100.00;101344.56;5013983;28;20030;-53
2023/08/19 10:49:13;;;;;;;6.88;6.07;;;;;;;29.59;100.00;101371.81;5013402;28;20045;-49
2023/08/19 10:51:53;;;;;;;6.88;5.65;;;;;;;29.65;100.00;101397.44;5013972;28;20022;-50
2023/08/19 10:54:31;;;;;;;5.65;4.95;;;;;;;29.08;100.00;101388.81;4996278;28;20038;-49
2023/08/19 10:57:10;;;;;;;8.38;6.60;;;;;;;28.24;100.00;101347.63;5013330;28;20034;-48
2023/08/19 10:59:36;;;;;;;7.38;6.60;;;;;;;27.92;100.00;101374.22;5013284;28;20026;-49
2023/08/19 11:02:02;;;;;;;7.28;5.57;;;;;;;27.19;100.00;101364.13;5013455;28;20088;-50